Terminal Aerodrome Forecast
Issued by NWS

Home | Current Version | Previous Version | Graphics & Text | Print | Product List | Glossary On
Versions: 1 2 3 4 5 6 7 8 9 10 11 12 13 14 15 16 17 18 19 20 21 22 23 24 25 26 27 28 29 30 31 32 33
000
FTUS43 KLOT 180500
TAFMDW
TAF
KMDW 180530Z 1806/1906 02007KT P6SM OVC006
     FM181400 VRB02KT 6SM BR BKN007
     FM181600 24003KT P6SM BKN020
     FM181800 20004KT P6SM SCT025 SCT100
     FM182100 09009KT P6SM SCT040 BKN200
     FM190100 19006KT P6SM BKN050 BKN100
     FM190400 20007KT P6SM SHRA VCTS SCT035CB BKN050=

USA.gov is the U.S. government's official web portal to all federal, state and local government web resources and services.